Bald Head Island, North Carolina
Current Conditions -  °F | °C
As of 7:55 PM on Saturday 25 Oct 2014 (Local Time) from KSUT Reporting Station
Clear Clear  
Wind Chill: 62°   Ceiling: Unl
Heat Index: 62°   Visibility: 10mi
Dew Point: 52°   Wind: 0mph
Humidity: 69%   Direction: NA
Pressure: 29.95"   Gusts: NA
Location:  34.0734°N, 78.0547°W
Report Text: KSUT 252355Z AUTO 00000KT 10SM CLR 17/11 A2995 RMK AO2 T01670109 10229 20166
Loading
Personal Weather Stations






























Interactive Weather Map
Tropical Storm Tracking
New forecast layout! Learn more

10-Day Weather Forecast

Advertisements
Track Severe Weather on mobile